createdAt,value
2022-09-06T00:00:03.164Z,1.40
2022-09-06T00:10:04.429Z,1.50
2022-09-06T00:20:05.748Z,1.30
2022-09-06T00:30:07.062Z,1.50
2022-09-06T00:40:08.455Z,1.55
2022-09-06T00:50:11.562Z,1.50
2022-09-06T01:00:12.884Z,1.17
2022-09-06T01:10:14.295Z,1.20
2022-09-06T01:20:15.586Z,1.42
2022-09-06T01:30:16.866Z,1.60
2022-09-06T01:40:18.203Z,1.50
2022-09-06T01:50:19.493Z,1.52
2022-09-06T02:00:20.803Z,1.50
2022-09-06T02:10:22.050Z,1.27
2022-09-06T02:20:23.388Z,1.40
2022-09-06T02:30:24.751Z,1.45
2022-09-06T02:40:26.139Z,1.50
2022-09-06T02:50:27.418Z,1.63
2022-09-06T03:00:28.697Z,1.50
2022-09-06T03:10:31.149Z,1.73
2022-09-06T03:20:36.844Z,1.50
2022-09-06T03:30:38.567Z,1.55
2022-09-06T03:40:39.878Z,1.50
2022-09-06T03:50:41.131Z,1.60
2022-09-06T04:00:42.427Z,1.50
2022-09-06T04:10:43.708Z,1.60
2022-09-06T04:20:44.982Z,1.67
2022-09-06T04:30:46.267Z,1.40
2022-09-06T04:40:47.539Z,1.50
2022-09-06T04:50:48.890Z,1.50
2022-09-06T05:00:50.267Z,1.52
2022-09-06T05:10:51.623Z,1.50
2022-09-06T05:20:52.952Z,1.50
2022-09-06T05:30:54.260Z,1.48
2022-09-06T05:40:55.550Z,1.80
2022-09-06T05:50:56.835Z,1.80
2022-09-06T06:00:58.177Z,1.80
2022-09-06T06:10:59.702Z,1.58
2022-09-06T06:21:00.985Z,1.85
2022-09-06T06:31:02.266Z,1.70
2022-09-06T06:41:06.879Z,1.90
2022-09-06T06:51:08.687Z,1.58
2022-09-06T07:01:10.120Z,1.70
2022-09-06T07:11:11.550Z,1.80
2022-09-06T07:41:56.746Z,1.50
2022-09-06T07:51:58.187Z,1.60
2022-09-06T08:02:03.172Z,1.40
2022-09-06T08:12:06.415Z,1.70
2022-09-06T08:22:14.446Z,1.27
2022-09-06T08:32:22.256Z,1.40
2022-09-06T08:42:32.304Z,1.50
2022-09-06T08:52:41.847Z,1.40
2022-09-06T09:02:46.402Z,1.60
2022-09-06T09:12:56.568Z,1.48
2022-09-06T09:23:04.674Z,1.25
2022-09-06T09:33:12.293Z,1.60
2022-09-06T09:43:20.290Z,1.30
2022-09-06T09:53:28.326Z,1.42
2022-09-06T10:03:35.394Z,1.20
2022-09-06T10:13:44.329Z,1.30
2022-09-06T10:34:13.659Z,1.50
2022-09-06T10:44:15.278Z,1.10
2022-09-06T10:54:16.589Z,1.42
2022-09-06T11:04:25.330Z,1.30
2022-09-06T11:14:33.991Z,1.60
2022-09-06T11:24:41.313Z,1.50
2022-09-06T11:34:50.307Z,1.35
2022-09-06T11:44:58.904Z,1.40
2022-09-06T11:55:01.853Z,1.60
2022-09-06T12:05:05.548Z,1.70
2022-09-06T12:15:24.539Z,1.58
2022-09-06T12:25:32.339Z,1.40
2022-09-06T12:45:57.104Z,1.40
2022-09-06T12:55:58.502Z,1.60
2022-09-06T13:06:00.243Z,1.60
2022-09-06T13:16:11.243Z,1.52
2022-09-06T13:26:16.888Z,1.60
2022-09-06T13:36:27.525Z,1.73
2022-09-06T13:46:36.952Z,1.77
2022-09-06T13:56:46.325Z,1.63
2022-09-06T14:06:55.259Z,1.63
2022-09-06T14:17:05.264Z,1.90
2022-09-06T14:27:10.437Z,1.77
2022-09-06T14:37:19.323Z,2.03
2022-09-06T14:47:27.330Z,2.13
2022-09-06T14:57:35.341Z,1.92
2022-09-06T15:07:43.523Z,1.83
2022-09-06T15:17:52.337Z,2.13
2022-09-06T15:28:00.376Z,2.00
2022-09-06T15:38:08.426Z,1.80
2022-09-06T15:48:16.407Z,2.00
2022-09-06T15:58:25.349Z,2.00
2022-09-06T16:08:33.359Z,2.20
2022-09-06T16:18:41.358Z,2.00
2022-09-06T16:28:50.594Z,2.00
2022-09-06T16:39:00.718Z,2.20
2022-09-06T16:49:06.473Z,2.00
2022-09-06T16:59:14.864Z,2.10
2022-09-06T17:09:23.411Z,2.20
2022-09-06T17:19:31.890Z,1.95
2022-09-06T17:29:39.371Z,1.70
2022-09-06T17:39:48.391Z,1.92
2022-09-06T17:49:56.413Z,1.80
2022-09-06T17:59:57.893Z,1.90
2022-09-06T18:09:59.200Z,1.92
2022-09-06T18:20:00.599Z,2.08
2022-09-06T18:30:01.974Z,1.80
2022-09-06T18:40:03.591Z,1.60
2022-09-06T18:50:05.069Z,2.00
2022-09-06T19:00:06.344Z,2.00
2022-09-06T19:10:07.800Z,1.98
2022-09-06T19:20:09.185Z,1.90
2022-09-06T19:30:10.519Z,2.05
2022-09-06T19:40:11.948Z,1.90
2022-09-06T19:50:13.440Z,1.95
2022-09-06T20:00:14.827Z,2.08
2022-09-06T20:10:16.324Z,1.92
2022-09-06T20:20:17.763Z,2.00
2022-09-06T20:30:19.017Z,2.00
2022-09-06T20:40:20.393Z,1.75
2022-09-06T20:50:21.808Z,2.30
2022-09-06T21:00:23.070Z,2.08
2022-09-06T21:10:24.485Z,2.40
2022-09-06T21:20:26.008Z,2.13
2022-09-06T21:30:27.433Z,2.10
2022-09-06T21:40:28.806Z,2.08
2022-09-06T21:50:30.137Z,2.33
2022-09-06T22:00:31.431Z,2.13
2022-09-06T22:10:32.674Z,2.47
2022-09-06T22:20:34.069Z,2.30
2022-09-06T22:30:35.319Z,2.05
2022-09-06T22:40:36.569Z,2.60
2022-09-06T22:50:37.900Z,2.28
2022-09-06T23:00:39.264Z,2.13
2022-09-06T23:10:40.569Z,2.20
2022-09-06T23:20:41.839Z,2.05
2022-09-06T23:30:43.088Z,1.75
2022-09-06T23:40:44.345Z,1.90
2022-09-06T23:50:45.613Z,1.80
